Time;durP1;ratioP1;P1;durP2;ratioP2;P2;SDS_P1;SDS_P2;PMS_P1;PMS_P2;Temp;Humidity;BMP_temperature;BMP_pressure;BME280_temperature;BME280_humidity;BME280_pressure;Samples;Min_cycle;Max_cycle;Signal;HPM_P1;HPM_P2
2022/04/24 00:00:53;;;;;;;50.33;30.60;;;;;;;3.20;68.95;96330.20;1729613;81;25499;-73
2022/04/24 00:03:19;;;;;;;40.43;26.17;;;;;;;3.16;69.05;96317.75;1725008;82;25745;-72
2022/04/24 00:05:47;;;;;;;38.40;25.05;;;;;;;3.14;69.28;96321.66;1724472;81;25707;-73
2022/04/24 00:08:14;;;;;;;44.40;26.45;;;;;;;3.11;69.28;96322.85;1724399;83;25717;-73
2022/04/24 00:10:40;;;;;;;41.33;27.30;;;;;;;3.11;69.53;96318.85;1724346;83;28241;-73
2022/04/24 00:13:07;;;;;;;40.52;25.60;;;;;;;3.09;69.69;96312.87;1724314;82;25828;-74
2022/04/24 00:15:34;;;;;;;36.77;23.67;;;;;;;3.12;69.81;96303.17;1724385;83;25738;-72
2022/04/24 00:18:01;;;;;;;33.02;21.17;;;;;;;3.17;69.77;96308.73;1724469;81;25906;-73
2022/04/24 00:20:28;;;;;;;32.33;21.85;;;;;;;3.16;69.81;96302.27;1724528;81;25818;-72
2022/04/24 00:22:54;;;;;;;32.30;21.02;;;;;;;3.19;69.95;96297.37;1724136;83;27447;-72
2022/04/24 00:25:21;;;;;;;30.08;20.80;;;;;;;3.24;70.04;96286.14;1724436;81;25833;-73
2022/04/24 00:27:48;;;;;;;35.85;23.30;;;;;;;3.28;70.07;96283.89;1724360;83;25722;-73
2022/04/24 00:30:14;;;;;;;41.48;25.45;;;;;;;3.31;70.05;96287.52;1724489;81;25768;-73
2022/04/24 00:32:41;;;;;;;40.83;25.75;;;;;;;3.33;70.11;96288.16;1724754;83;25397;-72
2022/04/24 00:35:08;;;;;;;38.73;24.27;;;;;;;3.35;70.13;96295.46;1724398;81;28169;-72
2022/04/24 00:37:35;;;;;;;37.20;25.25;;;;;;;3.38;70.18;96293.75;1724380;83;25825;-72
2022/04/24 00:40:02;;;;;;;37.35;24.07;;;;;;;3.38;70.24;96283.87;1724168;83;25241;-71
2022/04/24 00:42:29;;;;;;;34.20;22.42;;;;;;;3.41;70.31;96287.49;1724368;81;26472;-73
2022/04/24 00:44:56;;;;;;;36.58;23.32;;;;;;;3.40;70.24;96283.68;1724398;83;26360;-72
2022/04/24 00:47:24;;;;;;;37.95;25.12;;;;;;;3.38;70.23;96272.41;1724430;82;27384;-72
2022/04/24 00:49:51;;;;;;;36.05;23.67;;;;;;;3.39;70.31;96272.69;1724399;83;25841;-73
2022/04/24 00:52:18;;;;;;;37.20;23.42;;;;;;;3.39;70.33;96263.36;1724443;83;25721;-73
2022/04/24 00:54:44;;;;;;;37.33;24.10;;;;;;;3.38;70.39;96261.20;1724423;83;25714;-73
2022/04/24 00:57:13;;;;;;;35.98;23.40;;;;;;;3.38;70.44;96259.07;1724356;81;25677;-73
2022/04/24 00:59:41;;;;;;;35.23;24.55;;;;;;;3.35;70.48;96254.94;1724455;83;27287;-72
2022/04/24 01:02:09;;;;;;;39.38;23.95;;;;;;;3.29;70.57;96253.03;1719534;82;25777;-72
2022/04/24 01:04:38;;;;;;;36.73;23.57;;;;;;;3.24;70.59;96252.81;1699030;83;25726;-71
2022/04/24 01:07:05;;;;;;;39.65;23.90;;;;;;;3.19;70.70;96258.71;1699436;84;25741;-73
2022/04/24 01:09:34;;;;;;;29.12;20.10;;;;;;;3.14;70.83;96257.66;1699406;84;25825;-72
2022/04/24 01:12:03;;;;;;;31.80;22.27;;;;;;;3.13;70.96;96250.16;1698986;84;27436;-73
2022/04/24 01:14:30;;;;;;;29.70;21.42;;;;;;;3.16;71.04;96244.42;1699362;84;25759;-73
2022/04/24 01:17:00;;;;;;;31.65;21.10;;;;;;;3.22;71.07;96250.33;1699369;84;25813;-73
2022/04/24 01:19:28;;;;;;;28.92;19.87;;;;;;;3.25;71.12;96239.28;1699300;84;26620;-72
2022/04/24 01:21:55;;;;;;;29.57;20.08;;;;;;;3.29;71.15;96238.88;1699517;84;26496;-73
2022/04/24 01:24:28;;;;;;;29.12;21.57;;;;;;;3.30;71.15;96238.68;1699280;84;27482;-72
2022/04/24 01:26:55;;;;;;;33.55;23.07;;;;;;;3.36;71.19;96250.43;1698864;83;25686;-73
2022/04/24 01:29:24;;;;;;;42.73;25.27;;;;;;;3.43;71.25;96254.78;1698928;84;25713;-73
2022/04/24 01:31:52;;;;;;;31.50;22.55;;;;;;;3.50;71.19;96244.17;1699272;84;25716;-72
2022/04/24 01:34:20;;;;;;;32.70;22.50;;;;;;;3.51;71.33;96233.78;1699518;84;25418;-72
2022/04/24 01:36:48;;;;;;;31.35;21.82;;;;;;;3.46;71.38;96233.06;1699373;84;28385;-73
2022/04/24 01:39:15;;;;;;;33.40;22.62;;;;;;;3.43;71.45;96245.95;1698987;84;25792;-72
2022/04/24 01:41:42;;;;;;;43.35;22.73;;;;;;;3.45;71.54;96249.26;1699209;84;25734;-73
2022/04/24 01:44:09;;;;;;;34.35;23.50;;;;;;;3.42;71.58;96251.80;1699250;84;25623;-73
2022/04/24 01:46:36;;;;;;;33.48;23.38;;;;;;;3.43;71.59;96253.95;1699332;84;25652;-72
2022/04/24 01:49:03;;;;;;;33.00;22.95;;;;;;;3.46;71.64;96251.73;1699337;84;27302;-72
2022/04/24 01:51:29;;;;;;;32.05;22.67;;;;;;;3.46;71.83;96240.23;1699265;84;25866;-72
2022/04/24 01:53:56;;;;;;;33.58;22.62;;;;;;;3.47;71.95;96248.55;1699456;84;25745;-72
2022/04/24 01:56:22;;;;;;;33.78;23.60;;;;;;;3.48;71.96;96251.55;1699581;84;25768;-73
2022/04/24 01:58:49;;;;;;;32.10;22.65;;;;;;;3.51;72.00;96237.78;1699659;84;25709;-72
2022/04/24 02:01:16;;;;;;;36.58;25.65;;;;;;;3.54;71.94;96226.73;1699489;84;27598;-72
2022/04/24 02:03:42;;;;;;;37.33;24.77;;;;;;;3.58;71.94;96225.33;1716880;83;25806;-72
2022/04/24 02:06:09;;;;;;;33.53;23.50;;;;;;;3.63;71.97;96218.88;1724432;83;25368;-72
2022/04/24 02:08:36;;;;;;;35.60;22.95;;;;;;;3.67;71.95;96220.14;1724456;83;25862;-72
2022/04/24 02:11:08;;;;;;;31.17;22.73;;;;;;;3.68;71.92;96223.13;1724426;81;26448;-72
2022/04/24 02:13:36;;;;;;;31.75;22.95;;;;;;;3.71;71.98;96225.92;1724400;81;28288;-72
2022/04/24 02:16:03;;;;;;;43.35;28.90;;;;;;;3.76;72.04;96217.61;1724403;81;25902;-72
2022/04/24 02:18:30;;;;;;;39.25;29.12;;;;;;;3.81;71.98;96214.36;1724417;83;25774;-73
2022/04/24 02:20:59;;;;;;;39.78;26.10;;;;;;;3.84;71.96;96213.47;1724558;82;26264;-72
2022/04/24 02:23:25;;;;;;;37.25;26.50;;;;;;;3.88;72.03;96219.20;1724490;83;25832;-72
2022/04/24 02:25:52;;;;;;;35.43;24.35;;;;;;;3.91;72.08;96220.16;1724485;83;27408;-73
2022/04/24 02:28:18;;;;;;;32.78;23.73;;;;;;;3.92;72.08;96213.80;1724474;81;25724;-72
2022/04/24 02:30:45;;;;;;;34.33;24.52;;;;;;;3.95;72.10;96216.08;1724610;82;25798;-73
2022/04/24 02:33:12;;;;;;;35.58;23.62;;;;;;;3.98;72.12;96207.68;1724343;83;25754;-72
2022/04/24 02:35:38;;;;;;;33.95;23.00;;;;;;;3.99;72.23;96207.96;1724450;81;25827;-73
2022/04/24 02:38:05;;;;;;;36.03;23.38;;;;;;;3.99;72.27;96195.95;1724375;83;27366;-72
2022/04/24 02:40:32;;;;;;;32.50;22.60;;;;;;;4.03;72.20;96199.05;1724425;82;26293;-74
2022/04/24 02:42:58;;;;;;;32.48;22.85;;;;;;;4.04;72.24;96198.03;1724525;82;25725;-72
2022/04/24 02:45:25;;;;;;;33.53;23.52;;;;;;;4.05;72.27;96194.34;1724420;81;26634;-73
2022/04/24 02:47:51;;;;;;;32.60;22.73;;;;;;;4.06;72.37;96192.80;1724539;81;25721;-73
2022/04/24 02:50:19;;;;;;;31.97;22.98;;;;;;;4.11;72.39;96191.67;1724675;83;27609;-72
2022/04/24 02:52:54;;;;;;;41.37;27.05;;;;;;;4.15;72.35;96192.11;1724588;81;25719;-73
2022/04/24 02:55:22;;;;;;;60.58;29.55;;;;;;;4.16;72.35;96189.75;1724508;83;25716;-73
2022/04/24 02:57:50;;;;;;;39.30;25.37;;;;;;;4.20;72.32;96184.33;1724726;83;25842;-73
2022/04/24 03:00:32;;;;;;;36.05;24.52;;;;;;;4.21;72.43;96184.64;1724531;83;25273;-72
2022/04/24 03:02:52;;;;;;;32.55;23.45;;;;;;;4.24;72.48;96186.89;1719684;83;27472;-72
2022/04/24 03:05:24;;;;;;;37.42;23.73;;;;;;;4.23;72.52;96194.59;1724302;83;26116;-73
2022/04/24 03:07:51;;;;;;;36.08;24.43;;;;;;;4.25;72.47;96191.20;1724402;82;25696;-72
2022/04/24 03:10:18;;;;;;;30.25;22.98;;;;;;;4.29;72.50;96200.48;1724589;81;26641;-73
2022/04/24 03:12:45;;;;;;;38.15;26.82;;;;;;;4.30;72.47;96200.79;1724497;83;26013;-71
2022/04/24 03:15:14;;;;;;;37.20;24.80;;;;;;;4.32;72.55;96204.09;1724410;83;28365;-73
2022/04/24 03:17:41;;;;;;;34.95;23.70;;;;;;;4.32;72.62;96208.09;1724200;83;25780;-73
2022/04/24 03:20:10;;;;;;;31.57;23.38;;;;;;;4.34;72.70;96208.21;1724563;83;25813;-72
2022/04/24 03:22:37;;;;;;;30.10;21.52;;;;;;;4.36;72.77;96202.64;1724540;83;25690;-73
2022/04/24 03:25:07;;;;;;;28.70;21.35;;;;;;;4.39;73.01;96204.09;1724617;81;25995;-72
2022/04/24 03:27:34;;;;;;;29.35;22.35;;;;;;;4.37;73.19;96202.95;1724443;83;26860;-73
2022/04/24 03:30:02;;;;;;;32.88;23.30;;;;;;;4.35;73.31;96210.34;1724559;83;25727;-72
2022/04/24 03:32:33;;;;;;;31.57;22.25;;;;;;;4.36;73.39;96207.98;1724526;83;25731;-73
2022/04/24 03:35:01;;;;;;;29.90;22.30;;;;;;;4.37;73.42;96206.96;1724605;81;25743;-72
2022/04/24 03:37:28;;;;;;;27.75;21.20;;;;;;;4.40;73.58;96209.23;1724605;82;25740;-74
2022/04/24 03:39:54;;;;;;;28.98;22.07;;;;;;;4.42;73.57;96202.36;1724490;82;27372;-72
2022/04/24 03:42:21;;;;;;;31.02;21.85;;;;;;;4.43;73.67;96202.16;1724033;83;25889;-72
2022/04/24 03:44:48;;;;;;;26.37;19.98;;;;;;;4.47;73.76;96201.25;1724501;82;25766;-73
2022/04/24 03:47:15;;;;;;;27.17;22.10;;;;;;;4.50;73.89;96200.31;1724544;82;26872;-72
2022/04/24 03:49:41;;;;;;;30.02;21.62;;;;;;;4.54;73.95;96194.89;1724278;83;26079;-73
2022/04/24 03:52:08;;;;;;;27.27;20.72;;;;;;;4.56;74.06;96199.52;1724465;83;27368;-73
2022/04/24 03:54:35;;;;;;;27.90;21.37;;;;;;;4.56;74.14;96198.19;1724262;81;25684;-74
2022/04/24 03:57:02;;;;;;;32.15;22.02;;;;;;;4.56;74.40;96196.84;1724510;83;25826;-73
2022/04/24 03:59:29;;;;;;;33.78;24.32;;;;;;;4.56;74.51;96194.17;1724553;83;26373;-72
2022/04/24 04:01:56;;;;;;;34.58;25.77;;;;;;;4.57;74.51;96190.48;1724552;83;25755;-73
2022/04/24 04:04:22;;;;;;;35.23;25.23;;;;;;;4.61;74.57;96190.36;1724432;81;27414;-71
2022/04/24 04:06:49;;;;;;;33.83;26.00;;;;;;;4.58;74.73;96182.77;1724517;83;25728;-73
2022/04/24 04:09:15;;;;;;;41.55;27.87;;;;;;;4.61;74.82;96184.19;1724430;81;25739;-73
2022/04/24 04:11:42;;;;;;;37.95;25.10;;;;;;;4.64;74.99;96181.94;1724187;83;26572;-72
2022/04/24 04:14:09;;;;;;;33.33;23.92;;;;;;;4.68;75.03;96197.06;1724413;83;26781;-75
2022/04/24 04:16:35;;;;;;;34.60;24.98;;;;;;;4.69;75.06;96209.41;1724549;81;28312;-72
2022/04/24 04:19:02;;;;;;;40.03;29.20;;;;;;;4.73;75.23;96205.80;1724327;81;25692;-73
2022/04/24 04:21:28;;;;;;;45.88;33.38;;;;;;;4.68;75.36;96214.44;1724509;83;25807;-73
2022/04/24 04:23:55;;;;;;;47.45;33.38;;;;;;;4.63;75.42;96208.36;1724631;83;26117;-72
2022/04/24 04:26:22;;;;;;;50.03;35.38;;;;;;;4.55;75.55;96202.39;1724493;83;25751;-74
2022/04/24 04:28:50;;;;;;;44.58;33.00;;;;;;;4.52;75.64;96204.13;1724459;83;28358;-74
2022/04/24 04:33:45;;;;;;;48.28;32.53;;;;;;;4.55;75.76;96193.86;1667202;85;25420;-72
2022/04/24 04:36:12;;;;;;;45.85;33.08;;;;;;;4.58;75.79;96193.46;1667133;85;25927;-72
2022/04/24 04:38:38;;;;;;;45.03;32.03;;;;;;;4.63;75.84;96199.00;1667475;86;25569;-73
2022/04/24 04:41:05;;;;;;;44.08;32.65;;;;;;;4.67;75.85;96194.91;1667398;84;27373;-72
2022/04/24 04:43:32;;;;;;;39.90;30.95;;;;;;;4.73;75.85;96195.92;1667232;85;25709;-74
2022/04/24 04:45:58;;;;;;;41.55;29.98;;;;;;;4.78;75.92;96189.46;1667297;85;26152;-72
2022/04/24 04:48:26;;;;;;;41.28;29.95;;;;;;;4.80;75.87;96186.59;1667373;84;26490;-73
2022/04/24 04:50:53;;;;;;;44.13;30.48;;;;;;;4.84;75.95;96186.47;1667245;85;25797;-72
2022/04/24 04:53:20;;;;;;;42.00;30.25;;;;;;;4.90;75.98;96191.02;1661784;85;28379;-72
2022/04/24 04:55:46;;;;;;;42.73;30.23;;;;;;;4.95;75.99;96183.21;1659527;86;25772;-72
2022/04/24 04:58:13;;;;;;;39.67;30.25;;;;;;;5.00;76.10;96182.06;1659641;86;25907;-73
2022/04/24 05:00:40;;;;;;;43.02;31.45;;;;;;;5.04;76.18;96169.42;1659293;86;25842;-73
2022/04/24 05:03:07;;;;;;;40.85;29.07;;;;;;;5.09;76.20;96164.77;1659457;86;25864;-73
2022/04/24 05:05:33;;;;;;;41.25;29.65;;;;;;;5.17;76.21;96167.25;1659322;86;27645;-72
2022/04/24 05:08:00;;;;;;;36.28;28.77;;;;;;;5.20;76.35;96157.44;1659257;86;26058;-72
2022/04/24 05:10:26;;;;;;;38.90;29.32;;;;;;;5.28;76.33;96155.91;1659647;86;25806;-72
2022/04/24 05:12:53;;;;;;;40.60;28.95;;;;;;;5.32;76.36;96146.41;1659519;86;26464;-73
2022/04/24 05:15:21;;;;;;;43.35;29.32;;;;;;;5.42;76.42;96141.48;1659520;86;25581;-73
2022/04/24 05:17:48;;;;;;;40.17;28.50;;;;;;;5.55;76.44;96147.83;1659621;86;28389;-72
2022/04/24 05:20:14;;;;;;;36.28;26.95;;;;;;;5.64;76.44;96155.41;1659509;86;25966;-72
2022/04/24 05:22:42;;;;;;;38.95;27.07;;;;;;;5.72;76.32;96153.00;1659496;86;25953;-73
2022/04/24 05:25:10;;;;;;;33.20;25.90;;;;;;;5.80;76.24;96156.77;1659460;86;25739;-72
2022/04/24 05:27:38;;;;;;;36.90;27.85;;;;;;;5.87;76.19;96168.30;1659525;86;25557;-72
2022/04/24 05:30:07;;;;;;;41.77;29.15;;;;;;;5.94;76.15;96165.62;1676146;83;27644;-72
2022/04/24 05:32:48;;;;;;;41.48;31.50;;;;;;;5.97;76.34;96167.87;1724367;83;25456;-73
2022/04/24 05:35:16;;;;;;;40.55;30.52;;;;;;;5.92;76.54;96160.98;1688837;84;25752;-72
2022/04/24 05:37:45;;;;;;;40.73;29.48;;;;;;;5.93;76.80;96154.59;1688901;84;25969;-73
2022/04/24 05:40:12;;;;;;;44.30;27.98;;;;;;;5.96;76.88;96157.68;1689128;84;25961;-72
2022/04/24 05:45:22;;;;;;;38.23;26.85;;;;;;;6.03;77.00;96150.45;1613158;88;25874;-73
2022/04/24 05:47:49;;;;;;;37.95;26.55;;;;;;;6.12;76.98;96148.34;1613056;88;25829;-73
2022/04/24 05:50:16;;;;;;;34.23;24.65;;;;;;;6.20;76.96;96147.27;1613144;88;25872;-73
2022/04/24 05:52:43;;;;;;;30.35;24.47;;;;;;;6.28;76.69;96148.38;1613180;88;25763;-73
2022/04/24 05:55:10;;;;;;;33.80;25.37;;;;;;;6.37;76.55;96139.86;1613061;88;27382;-73
2022/04/24 05:57:37;;;;;;;35.52;24.00;;;;;;;6.46;76.48;96137.21;1613013;88;25814;-72
2022/04/24 06:00:09;;;;;;;32.85;23.07;;;;;;;6.51;76.36;96136.58;1612966;88;25836;-72
2022/04/24 06:02:36;;;;;;;34.63;23.52;;;;;;;6.60;76.57;96128.56;1613215;88;25928;-72
2022/04/24 06:05:03;;;;;;;28.23;21.27;;;;;;;6.72;76.53;96125.48;1612824;88;25846;-74
2022/04/24 06:07:30;;;;;;;26.35;19.62;;;;;;;6.83;76.45;96114.05;1613071;88;28413;-72
2022/04/24 06:09:56;;;;;;;26.37;19.17;;;;;;;6.96;76.33;96113.63;1612788;88;25749;-73
2022/04/24 06:12:23;;;;;;;27.05;20.12;;;;;;;7.04;76.36;96114.68;1613185;88;25893;-73
2022/04/24 06:14:49;;;;;;;26.77;19.05;;;;;;;7.16;76.29;96112.91;1613192;88;25798;-72
2022/04/24 06:17:16;;;;;;;23.40;17.82;;;;;;;7.28;75.92;96111.14;1613163;88;25794;-73
2022/04/24 06:19:42;;;;;;;24.80;18.73;;;;;;;7.35;75.51;96109.75;1613199;88;28450;-74
2022/04/24 06:22:09;;;;;;;24.85;18.85;;;;;;;7.40;75.61;96108.55;1613122;88;25583;-73
2022/04/24 06:24:36;;;;;;;27.77;19.73;;;;;;;7.50;75.70;96100.78;1612836;88;25885;-72
2022/04/24 06:27:03;;;;;;;24.77;20.08;;;;;;;7.62;75.50;96102.20;1613103;88;25964;-73
2022/04/24 06:29:29;;;;;;;27.15;20.15;;;;;;;7.70;75.41;96095.20;1613368;88;25813;-72
2022/04/24 06:31:56;;;;;;;28.55;21.00;;;;;;;7.80;75.31;96096.83;1622877;87;27460;-73
2022/04/24 06:34:23;;;;;;;30.20;23.65;;;;;;;7.87;75.16;96098.37;1635164;87;25342;-72
2022/04/24 06:36:50;;;;;;;29.87;21.60;;;;;;;7.98;75.19;96102.16;1635373;87;25748;-74
2022/04/24 06:39:16;;;;;;;27.73;21.20;;;;;;;8.07;75.10;96098.66;1611154;87;25768;-73
2022/04/24 06:41:43;;;;;;;29.72;21.97;;;;;;;8.17;75.05;96095.72;1663287;83;25630;-73
2022/04/24 06:44:10;;;;;;;31.00;23.30;;;;;;;8.24;74.92;96089.72;1719572;83;28129;-74
2022/04/24 06:46:36;;;;;;;31.50;23.95;;;;;;;8.30;74.71;96088.00;1719338;83;25789;-72
2022/04/24 06:49:03;;;;;;;32.88;24.18;;;;;;;8.36;74.75;96078.21;1719375;83;25786;-73
2022/04/24 06:51:29;;;;;;;30.85;24.07;;;;;;;8.46;74.79;96083.84;1719489;83;25848;-73
2022/04/24 06:53:56;;;;;;;29.82;23.45;;;;;;;8.55;74.68;96083.31;1719434;83;25481;-73
2022/04/24 06:56:23;;;;;;;28.45;22.65;;;;;;;8.61;74.63;96082.89;1719227;83;27630;-72
2022/04/24 06:58:51;;;;;;;32.28;23.57;;;;;;;8.65;74.60;96067.95;1719314;83;25717;-74
2022/04/24 07:01:19;;;;;;;26.65;21.00;;;;;;;8.68;74.56;96068.02;1719418;83;26506;-73
2022/04/24 07:03:49;;;;;;;25.30;19.85;;;;;;;8.74;74.46;96075.96;1719535;82;25805;-73
2022/04/24 07:06:15;;;;;;;27.90;20.05;;;;;;;8.77;74.21;96071.47;1724265;83;25786;-73
2022/04/24 07:08:42;;;;;;;27.75;21.02;;;;;;;8.80;74.10;96067.50;1724567;83;28319;-73
2022/04/24 07:11:09;;;;;;;27.35;20.50;;;;;;;8.84;74.01;96067.31;1724439;83;25681;-74
2022/04/24 07:13:38;;;;;;;30.90;22.35;;;;;;;8.87;73.89;96069.54;1724569;83;25783;-74
2022/04/24 07:16:05;;;;;;;32.15;22.52;;;;;;;8.88;74.04;96070.66;1724418;83;26436;-72
2022/04/24 07:18:32;;;;;;;30.95;22.60;;;;;;;8.90;74.11;96067.22;1724522;83;25987;-74
2022/04/24 07:20:58;;;;;;;28.17;22.42;;;;;;;8.92;74.12;96063.77;1724627;83;27599;-73
2022/04/24 07:23:25;;;;;;;29.90;22.30;;;;;;;8.90;74.28;96061.83;1724680;83;25602;-74
2022/04/24 07:25:52;;;;;;;35.23;23.55;;;;;;;8.90;74.53;96064.52;1724378;83;25716;-72
2022/04/24 07:28:19;;;;;;;31.73;25.80;;;;;;;8.89;74.63;96052.12;1724625;83;25784;-72
2022/04/24 07:30:46;;;;;;;30.20;23.70;;;;;;;8.95;74.80;96059.23;1724529;83;25739;-72
2022/04/24 07:33:13;;;;;;;29.15;22.37;;;;;;;8.96;74.91;96060.88;1724565;83;27554;-72
2022/04/24 07:35:41;;;;;;;29.72;22.93;;;;;;;9.00;74.82;96058.55;1724597;83;25629;-73
2022/04/24 07:38:08;;;;;;;28.02;22.02;;;;;;;9.02;74.73;96049.20;1724567;83;25753;-73
2022/04/24 07:40:36;;;;;;;30.92;24.25;;;;;;;9.06;74.70;96054.13;1724677;83;26437;-73
2022/04/24 07:43:07;;;;;;;30.35;24.12;;;;;;;9.09;74.62;96047.72;1724527;82;25717;-74
2022/04/24 07:45:43;;;;;;;32.08;24.50;;;;;;;9.14;74.65;96049.72;1694862;84;27471;-73
2022/04/24 07:48:12;;;;;;;32.48;25.17;;;;;;;9.23;74.61;96047.77;1694774;84;25899;-73
2022/04/24 07:50:49;;;;;;;29.98;24.52;;;;;;;9.31;74.41;96044.71;1695039;84;25849;-74
2022/04/24 07:53:17;;;;;;;32.25;24.23;;;;;;;9.39;74.56;96036.81;1688598;84;25800;-73
2022/04/24 07:55:49;;;;;;;28.90;23.62;;;;;;;9.47;74.57;96040.48;1659990;85;25873;-72
2022/04/24 07:58:16;;;;;;;25.60;21.27;;;;;;;9.54;74.63;96039.80;1661009;86;28509;-73
2022/04/24 08:00:44;;;;;;;34.60;22.65;;;;;;;9.56;74.42;96036.34;1660812;86;25864;-73
2022/04/24 08:03:13;;;;;;;28.83;22.73;;;;;;;9.55;74.31;96032.02;1660790;86;25847;-73
2022/04/24 08:05:47;;;;;;;32.63;22.67;;;;;;;9.63;74.44;96035.70;1665748;84;25991;-73
2022/04/24 08:08:20;;;;;;;29.70;21.50;;;;;;;9.74;74.35;96032.16;1633355;85;25295;-72
2022/04/24 08:10:50;;;;;;;29.00;23.73;;;;;;;9.84;74.20;96034.75;1635414;87;27478;-73
2022/04/24 08:13:19;;;;;;;29.87;23.25;;;;;;;9.90;74.08;96043.24;1650864;86;25756;-73
2022/04/24 08:15:46;;;;;;;28.38;22.50;;;;;;;9.98;74.10;96046.89;1650898;86;25871;-74
2022/04/24 08:18:13;;;;;;;29.23;22.95;;;;;;;10.02;73.95;96047.50;1650957;86;25915;-74
2022/04/24 08:20:41;;;;;;;28.45;23.05;;;;;;;10.07;73.70;96052.19;1651164;86;25845;-73
2022/04/24 08:23:11;;;;;;;28.30;21.42;;;;;;;10.10;73.50;96042.27;1650963;86;27611;-74
2022/04/24 08:25:38;;;;;;;30.55;20.80;;;;;;;10.14;73.31;96043.44;1650832;86;25816;-71
2022/04/24 08:28:07;;;;;;;28.75;22.48;;;;;;;10.17;73.27;96039.41;1650836;86;25813;-72
2022/04/24 08:30:39;;;;;;;29.40;21.90;;;;;;;10.19;73.08;96030.06;1651003;86;25861;-72
2022/04/24 08:33:06;;;;;;;26.10;21.57;;;;;;;10.22;72.95;96031.46;1651139;86;33133;-75
2022/04/24 08:35:33;;;;;;;28.60;21.15;;;;;;;10.25;72.86;96033.16;1651066;86;27459;-74
2022/04/24 08:38:00;;;;;;;27.32;21.68;;;;;;;10.27;72.72;96029.66;1650870;86;26062;-72
2022/04/24 08:40:27;;;;;;;26.10;21.50;;;;;;;10.27;72.84;96034.23;1650843;86;25823;-73
2022/04/24 08:42:55;;;;;;;27.80;20.52;;;;;;;10.29;72.97;96027.55;1644681;86;25959;-73
2022/04/24 08:45:28;;;;;;;29.25;21.30;;;;;;;10.37;72.86;96025.81;1641747;87;27005;-72
2022/04/24 08:47:56;;;;;;;27.87;21.73;;;;;;;10.44;72.73;96034.56;1641613;87;28114;-73
2022/04/24 08:50:27;;;;;;;28.20;21.37;;;;;;;10.50;72.67;96022.52;1641639;87;25663;-74
2022/04/24 08:52:58;;;;;;;25.82;21.48;;;;;;;10.55;72.57;96031.50;1638980;87;26814;-73
2022/04/24 08:55:27;;;;;;;29.23;21.63;;;;;;;10.61;72.47;96029.19;1641262;87;25753;-74
2022/04/24 08:57:54;;;;;;;30.32;21.73;;;;;;;10.66;72.37;96025.73;1641582;87;25851;-72
2022/04/24 09:00:20;;;;;;;24.77;20.50;;;;;;;10.71;72.27;96029.34;1641659;87;27531;-72
2022/04/24 09:02:48;;;;;;;22.35;19.07;;;;;;;10.77;72.18;96028.88;1641834;87;25589;-73
2022/04/24 09:05:15;;;;;;;24.10;18.57;;;;;;;10.81;72.02;96031.39;1665000;84;25728;-73
2022/04/24 09:07:43;;;;;;;20.85;17.60;;;;;;;10.84;71.94;96032.25;1686082;85;25861;-73
2022/04/24 09:10:13;;;;;;;21.70;17.67;;;;;;;10.89;71.76;96034.20;1702563;83;25760;-73
2022/04/24 09:12:40;;;;;;;22.98;18.23;;;;;;;10.97;71.87;96029.22;1718499;83;27434;-73
2022/04/24 09:15:08;;;;;;;23.12;17.62;;;;;;;11.09;71.73;96027.24;1718463;82;25722;-73
2022/04/24 09:17:36;;;;;;;20.43;16.50;;;;;;;11.18;71.63;96024.39;1686121;83;25715;-74
2022/04/24 09:20:19;;;;;;;17.67;14.95;;;;;;;11.29;71.55;96017.78;1686239;84;25869;-72
2022/04/24 09:22:47;;;;;;;17.95;13.98;;;;;;;11.38;71.48;96019.80;1596547;89;25741;-74
2022/04/24 09:25:14;;;;;;;20.30;15.45;;;;;;;11.43;71.17;96017.70;1656619;86;28209;-75
2022/04/24 09:27:40;;;;;;;19.87;14.95;;;;;;;11.49;71.26;96006.70;1656554;86;25748;-73
2022/04/24 09:30:15;;;;;;;17.02;14.10;;;;;;;11.60;70.96;96004.94;1656723;86;25812;-74
2022/04/24 09:32:52;;;;;;;16.90;13.43;;;;;;;11.66;70.77;96008.00;1656841;86;26533;-74
2022/04/24 09:35:33;;;;;;;17.17;14.30;;;;;;;11.77;70.53;95997.63;1656531;86;26471;-74
2022/04/24 09:38:14;;;;;;;23.80;16.37;;;;;;;11.88;70.43;95993.95;1656576;85;27043;-72
2022/04/24 09:40:48;;;;;;;37.83;24.52;;;;;;;12.10;70.56;95993.09;1638072;87;25862;-74
2022/04/24 09:43:17;;;;;;;29.65;21.10;;;;;;;12.28;70.38;95981.94;1638405;87;25782;-73
2022/04/24 09:45:51;;;;;;;35.38;21.57;;;;;;;12.40;70.06;95980.41;1638258;87;25974;-74
2022/04/24 09:48:20;;;;;;;40.00;24.23;;;;;;;12.49;69.81;95980.22;1638512;87;27012;-73
2022/04/24 09:50:49;;;;;;;33.28;21.85;;;;;;;12.59;69.67;95973.53;1638319;87;27530;-75
2022/04/24 09:53:20;;;;;;;32.73;19.67;;;;;;;12.72;69.51;95968.21;1638385;87;25976;-73
2022/04/24 09:55:51;;;;;;;28.95;17.95;;;;;;;12.81;69.37;95968.00;1638671;87;25960;-73
2022/04/24 10:00:49;;;;;;;25.57;16.62;;;;;;;12.96;68.93;95970.82;1555566;90;25839;-73
2022/04/24 10:03:18;;;;;;;18.30;13.22;;;;;;;13.05;68.79;95961.66;1539995;91;27579;-74
2022/04/24 10:05:49;;;;;;;21.75;14.55;;;;;;;13.10;68.62;95965.77;1560796;91;25805;-73
2022/04/24 10:08:18;;;;;;;21.97;14.68;;;;;;;13.15;68.27;95966.66;1562202;91;25885;-75
2022/04/24 10:10:45;;;;;;;25.10;15.55;;;;;;;13.21;68.09;95963.42;1562066;91;25853;-74
2022/04/24 10:13:13;;;;;;;24.35;15.18;;;;;;;13.27;68.09;95968.63;1562245;91;25962;-75
2022/04/24 10:16:10;;;;;;;19.40;13.62;;;;;;;13.36;67.95;95958.62;1561990;91;27494;-75
2022/04/24 10:18:57;;;;;;;15.80;10.88;;;;;;;13.56;67.78;95954.09;1500084;95;25588;-75
2022/04/24 10:22:05;;;;;;;16.20;10.55;;;;;;;13.88;67.74;95953.95;1466380;97;27050;-74
2022/04/24 10:24:43;;;;;;;12.78;9.35;;;;;;;14.21;67.51;95942.34;1466564;97;25808;-75
2022/04/24 10:27:11;;;;;;;7.83;6.60;;;;;;;14.64;67.45;95941.84;1466450;97;25915;-74
2022/04/24 10:29:58;;;;;;;6.30;4.80;;;;;;;15.13;66.89;95950.74;1466518;97;27454;-75
2022/04/24 10:32:27;;;;;;;9.93;6.25;;;;;;;15.49;65.79;95934.59;1466347;97;25866;-74
2022/04/24 10:34:54;;;;;;;9.48;5.35;;;;;;;16.02;65.92;95929.48;1466498;97;25785;-76
2022/04/24 10:37:32;;;;;;;5.92;4.00;;;;;;;16.49;65.08;95927.52;1466440;97;25991;-75
2022/04/24 10:40:01;;;;;;;2.95;2.20;;;;;;;17.02;64.20;95917.28;1463046;98;25912;-75
2022/04/24 10:42:38;;;;;;;4.67;2.87;;;;;;;17.55;63.24;95916.13;1463101;98;28331;-75
2022/04/24 10:45:14;;;;;;;1.40;1.30;;;;;;;18.06;62.91;95905.94;1454771;97;25878;-74
2022/04/24 10:47:53;;;;;;;2.33;1.70;;;;;;;18.54;61.23;95896.19;1472209;97;25912;-74
2022/04/24 10:50:20;;;;;;;1.82;1.40;;;;;;;18.96;60.86;95900.12;1472216;97;25853;-75
2022/04/24 10:52:50;;;;;;;3.95;2.27;;;;;;;19.36;59.54;95895.82;1471370;97;26115;-75
2022/04/24 10:55:19;;;;;;;3.27;1.95;;;;;;;19.63;58.50;95895.05;1470172;96;27549;-75
2022/04/24 10:57:57;;;;;;;3.05;1.80;;;;;;;19.63;58.14;95892.30;1485457;94;26558;-75
2022/04/24 11:00:31;;;;;;;2.37;1.90;;;;;;;19.70;57.64;95889.14;1520960;92;25839;-75
2022/04/24 11:03:13;;;;;;;2.55;1.37;;;;;;;19.63;56.99;95879.98;1521123;94;26833;-77
2022/04/24 11:05:45;;;;;;;3.20;1.45;;;;;;;19.89;56.25;95876.71;1518012;93;25868;-75
2022/04/24 11:08:18;;;;;;;1.57;1.35;;;;;;;20.07;55.44;95870.27;1492289;96;28137;-75
2022/04/24 11:10:47;;;;;;;4.30;1.35;;;;;;;20.20;55.13;95873.52;1491123;95;25763;-75
2022/04/24 11:13:20;;;;;;;3.20;1.98;;;;;;;20.35;54.87;95866.35;1486447;96;25786;-77
2022/04/24 11:15:48;;;;;;;2.95;2.12;;;;;;;20.38;53.80;95869.03;1530894;93;25826;-74
2022/04/24 11:18:21;;;;;;;3.67;2.22;;;;;;;20.19;53.65;95877.37;1532944;91;25782;-75
2022/04/24 11:21:01;;;;;;;4.15;1.85;;;;;;;20.07;53.17;95873.81;1533085;92;27668;-75
2022/04/24 11:23:36;;;;;;;5.37;1.70;;;;;;;20.09;52.69;95862.55;1532966;91;25887;-75
2022/04/24 11:26:06;;;;;;;4.55;1.62;;;;;;;19.99;52.17;95855.94;1533088;91;25893;-76
2022/04/24 11:28:35;;;;;;;9.63;2.37;;;;;;;19.84;51.98;95863.93;1532961;93;25926;-78
2022/04/24 11:31:18;;;;;;;2.98;1.40;;;;;;;19.69;51.56;95861.52;1532970;93;25902;-76
2022/04/24 11:34:00;;;;;;;3.60;1.67;;;;;;;19.38;50.89;95862.69;1533171;91;27488;-75
2022/04/24 11:36:33;;;;;;;2.87;1.55;;;;;;;19.02;50.34;95859.84;1526258;92;26354;-77
2022/04/24 11:39:03;;;;;;;6.90;1.47;;;;;;;18.73;50.79;95858.71;1481802;96;25368;-74